To NAV CANADA Home Page Login to a new session Search on AWWS site Disclaimer Vers la page française équivalente Tips FAQ What's new on the site To the Forecasts and Observations / NOTAM section To "File a Flight Plan" website Publications and other links Update of the User's profile FIC Telephone Numbers My Weather Data Folder Route Weather Data Regional Weather Data Local Weather Data To the Forecasts and Observations / NOTAM section
Request Generated 01/22/2019 at 02:04:59 UTC . Weather information available at that time is displayed.

METAR/TAF

WINDSOR/ON    (show WxCam)

METAR CYQG 220200Z AUTO 19003KT 9SM CLR M17/M21 A3058 RMK SLP375=
METAR CYQG 220100Z AUTO 23004KT 9SM CLR M15/M20 A3059 RMK SLP379=
METAR CYQG 220000Z AUTO 22007KT 9SM CLR M14/M19 A3059 RMK SLP379=

TAF CYQG 212338Z 2200/2224 20006KT P6SM SKC
FM220300 VRB03KT P6SM FEW180 BKN250
FM220900 12005KT P6SM BKN140 OVC200
FM221200 15010KT P6SM BKN080 OVC140
BECMG 2214/2215 16010G20KT
FM221800 17012G22KT P6SM BKN240
FM222300 18010G20KT 6SM -SN BKN040 OVC080
RMK FCST BASED ON AUTO OBS. NXT FCST BY 220600Z=

LONDON/ON    

METAR CYXU 220200Z 00000KT 15SM FEW030 M17/M19 A3052 RMK SC1 SC TR SLP365=
METAR CYXU 220100Z VRB02KT 15SM FEW030 M16/M18 A3052 RMK SC1 SC TR SLP363=
METAR CYXU 220000Z 27004KT 15SM FEW030 M15/M17 A3051 RMK SC1 SLP360=

TAF CYXU 212338Z 2200/2224 26007KT P6SM SCT025 TEMPO 2200/2203 BKN020
BECMG 2201/2203 VRB03KT
FM221100 09005KT P6SM BKN120 OVC200
FM221400 13010KT P6SM OVC100
BECMG 2216/2217 14012G22KT
FM222000 16012G22KT P6SM SCT140 BKN220
BECMG 2223/2224 18010KT
RMK NXT FCST BY 220600Z=

SARNIA (CHRIS HADFIELD)/ON    (show WxCam)

METAR CYZR 220200Z AUTO 22002KT 9SM OVC030 M14/M17 A3057 RMK SLP369=
METAR CYZR 220100Z AUTO 25003KT 220V290 9SM FEW032 M13/M18 A3057 RMK SLP370=
METAR CYZR 220000Z AUTO 26004KT 9SM CLR M13/M18 A3057 RMK SLP368=

TAF CYZR 211938Z 2120/2203 28008KT P6SM SCT030 TEMPO 2120/2203 BKN030
RMK FCST BASED ON AUTO OBS. NXT FCST WILL BE ISSUED AT 220845Z=

KITCHENER/WATERLOO/ON    (show WxCam)

METAR CYKF 220200Z AUTO 30005KT 9SM CLR M16/M18 A3049 RMK SLP358=
METAR CYKF 220100Z AUTO 30005KT 9SM CLR M16/M18 A3047 RMK SLP352=
METAR CYKF 220000Z AUTO 26004KT 9SM CLR M15/M17 A3047 RMK SLP352=

TAF CYKF 220138Z 2202/2214 VRB03KT P6SM SKC
FM221300 11005KT P6SM BKN120 OVC200
RMK FCST BASED ON AUTO OBS. NXT FCST BY 220800Z=

HAMILTON/ON    

METAR CYHM 220200Z 27007KT 15SM FEW018 M17/M19 A3053 RMK SC1 SC TR SLP363=
METAR CYHM 220100Z 26007KT 15SM FEW018 M16/M18 A3051 RMK SC1 SC TR SLP356=
METAR CYHM 220000Z 27007KT 15SM FEW018 M15/M18 A3049 RMK SC1 SC TR SLP351=

TAF CYHM 212338Z 2200/2224 28008KT P6SM FEW020
FM220600 26006KT P6SM FEW180 SCT250
BECMG 2208/2209 VRB03KT
FM221300 07005KT P6SM BKN120 OVC200
FM221700 08010KT P6SM OVC100
FM222200 09010KT P6SM SCT140 BKN220
RMK NXT FCST BY 220600Z=

TORONTO/LESTER B. PEARSON INTL/ON    

METAR CYYZ 220200Z 32011KT 15SM SKC M14/M21 A3052 RMK SLP352=
METAR CYYZ 220100Z 31011KT 15SM SKC M14/M21 A3050 RMK SLP347=
METAR CYYZ 220000Z 30011KT 15SM SKC M13/M21 A3050 RMK SLP347=

TAF CYYZ 212338Z 2200/2306 29015KT P6SM FEW040
BECMG 2200/2202 30007KT
FM220600 VRB03KT P6SM SCT250
FM221400 17005KT P6SM BKN120 OVC200
FM221700 12010G20KT P6SM OVC100
FM222100 14010G20KT P6SM BKN140 OVC240
FM230400 16007KT 21/2SM -SN OVC030
RMK NXT FCST BY 220300Z=
Your time UTC time
Weather data provided by Environment Canada and NAV CANADA